createdAt,value
2023-04-22T00:02:15.609Z,2.57
2023-04-22T00:04:45.738Z,2.53
2023-04-22T00:07:16.425Z,2.50
2023-04-22T00:09:43.541Z,2.67
2023-04-22T00:12:10.609Z,2.90
2023-04-22T00:14:37.702Z,3.00
2023-04-22T00:17:04.725Z,2.83
2023-04-22T00:19:31.563Z,2.75
2023-04-22T00:21:58.466Z,3.00
2023-04-22T00:24:25.406Z,3.40
2023-04-22T00:26:52.320Z,3.10
2023-04-22T00:29:19.157Z,2.90
2023-04-22T00:31:46.164Z,3.00
2023-04-22T00:34:13.232Z,2.87
2023-04-22T00:36:40.114Z,2.70
2023-04-22T00:39:06.942Z,2.90
2023-04-22T00:41:34.320Z,2.70
2023-04-22T00:44:01.506Z,2.85
2023-04-22T00:46:28.933Z,3.20
2023-04-22T00:48:56.448Z,3.00
2023-04-22T00:51:23.342Z,3.13
2023-04-22T00:53:50.207Z,2.95
2023-04-22T00:56:17.708Z,2.70
2023-04-22T00:58:44.617Z,2.70
2023-04-22T01:01:11.729Z,3.15
2023-04-22T01:03:40.604Z,3.08
2023-04-22T01:06:07.791Z,2.90
2023-04-22T01:08:35.001Z,3.10
2023-04-22T01:11:02.978Z,3.10
2023-04-22T01:13:29.821Z,3.20
2023-04-22T01:15:56.795Z,3.00
2023-04-22T01:18:23.769Z,3.20
2023-04-22T01:20:50.646Z,3.08
2023-04-22T01:23:22.085Z,2.90
2023-04-22T01:25:50.057Z,3.10
2023-04-22T01:28:17.775Z,3.33
2023-04-22T01:30:44.774Z,3.30
2023-04-22T01:33:12.286Z,2.80
2023-04-22T01:35:39.242Z,3.10
2023-04-22T01:38:08.467Z,3.10
2023-04-22T01:40:35.450Z,2.90
2023-04-22T01:43:03.209Z,3.20
2023-04-22T01:45:30.204Z,2.95
2023-04-22T01:47:57.461Z,3.30
2023-04-22T01:50:24.660Z,3.37
2023-04-22T01:52:52.242Z,3.40
2023-04-22T01:55:19.204Z,3.30
2023-04-22T01:57:46.025Z,3.70
2023-04-22T02:00:13.347Z,3.63
2023-04-22T02:02:40.509Z,3.45
2023-04-22T02:05:08.396Z,3.70
2023-04-22T02:07:35.532Z,3.63
2023-04-22T02:10:06.287Z,3.60
2023-04-22T02:12:33.314Z,3.50
2023-04-22T02:15:00.253Z,3.65
2023-04-22T02:17:27.375Z,3.42
2023-04-22T02:19:54.503Z,3.50
2023-04-22T02:22:23.439Z,3.70
2023-04-22T02:24:50.364Z,3.28
2023-04-22T02:27:17.370Z,3.90
2023-04-22T02:29:44.234Z,3.60
2023-04-22T02:32:11.103Z,3.50
2023-04-22T02:34:38.098Z,3.40
2023-04-22T02:37:05.051Z,3.70
2023-04-22T02:39:31.992Z,4.05
2023-04-22T02:41:58.820Z,3.80
2023-04-22T02:44:25.737Z,3.70
2023-04-22T02:46:52.721Z,3.70
2023-04-22T02:49:19.681Z,3.60
2023-04-22T02:51:46.618Z,3.97
2023-04-22T02:54:13.509Z,3.80
2023-04-22T02:56:40.373Z,3.80
2023-04-22T02:59:07.256Z,3.60
2023-04-22T03:01:34.213Z,3.95
2023-04-22T03:04:01.337Z,3.85
2023-04-22T03:06:28.314Z,4.00
2023-04-22T03:08:55.262Z,4.20
2023-04-22T03:11:22.198Z,4.10
2023-04-22T03:13:49.070Z,3.90
2023-04-22T03:16:17.670Z,3.83
2023-04-22T03:18:44.562Z,4.20
2023-04-22T03:21:11.435Z,3.95
2023-04-22T03:23:38.353Z,4.30
2023-04-22T03:26:05.323Z,3.90
2023-04-22T03:28:32.451Z,4.10
2023-04-22T03:30:59.373Z,4.40
2023-04-22T03:33:26.291Z,4.18
2023-04-22T03:35:53.120Z,4.30
2023-04-22T03:38:19.971Z,4.00
2023-04-22T03:40:46.812Z,4.10
2023-04-22T03:43:13.711Z,4.15
2023-04-22T03:45:40.687Z,4.40
2023-04-22T03:48:07.568Z,4.70
2023-04-22T03:50:34.457Z,4.30
2023-04-22T03:53:01.333Z,4.32
2023-04-22T03:55:28.258Z,4.70
2023-04-22T03:57:55.139Z,4.30
2023-04-22T04:00:22.111Z,4.50
2023-04-22T04:02:49.138Z,4.10
2023-04-22T04:05:16.488Z,4.30
2023-04-22T04:07:43.567Z,4.05
2023-04-22T04:10:11.088Z,4.50
2023-04-22T04:12:37.971Z,4.60
2023-04-22T04:15:05.348Z,4.50
2023-04-22T04:17:32.243Z,4.40
2023-04-22T04:19:59.249Z,4.40
2023-04-22T04:22:26.114Z,4.50
2023-04-22T04:24:52.947Z,4.40
2023-04-22T04:27:19.831Z,4.67
2023-04-22T04:29:46.655Z,4.20
2023-04-22T04:32:13.546Z,4.65
2023-04-22T04:34:40.435Z,4.75
2023-04-22T04:37:07.376Z,4.32
2023-04-22T04:39:34.208Z,4.50
2023-04-22T04:42:01.073Z,4.00
2023-04-22T04:44:27.909Z,4.60
2023-04-22T04:46:55.022Z,4.57
2023-04-22T04:49:22.049Z,4.20
2023-04-22T04:51:49.069Z,4.32
2023-04-22T04:54:16.334Z,4.50
2023-04-22T04:56:43.341Z,4.43
2023-04-22T04:59:10.242Z,4.32
2023-04-22T05:01:37.160Z,4.50
2023-04-22T05:04:04.281Z,4.50
2023-04-22T05:06:31.338Z,4.50
2023-04-22T05:08:58.535Z,4.50
2023-04-22T05:11:25.815Z,4.53
2023-04-22T05:13:52.729Z,4.82
2023-04-22T05:16:19.694Z,4.75
2023-04-22T05:18:47.215Z,4.40
2023-04-22T05:21:14.092Z,4.82
2023-04-22T05:23:40.943Z,5.00
2023-04-22T05:26:07.818Z,4.35
2023-04-22T05:28:34.681Z,4.70
2023-04-22T05:31:01.535Z,4.38
2023-04-22T05:33:28.464Z,4.80
2023-04-22T05:35:55.769Z,4.60
2023-04-22T05:38:22.720Z,4.43
2023-04-22T05:40:49.563Z,4.73
2023-04-22T05:43:16.542Z,4.68
2023-04-22T05:45:43.621Z,5.00
2023-04-22T05:48:10.521Z,4.50
2023-04-22T05:50:37.402Z,4.80
2023-04-22T05:53:04.259Z,4.90
2023-04-22T05:55:31.583Z,5.00
2023-04-22T05:57:58.502Z,4.82
2023-04-22T06:00:25.448Z,4.80
2023-04-22T06:02:52.444Z,5.10
2023-04-22T06:05:19.515Z,4.97
2023-04-22T06:07:46.556Z,5.60
2023-04-22T06:10:13.399Z,5.60
2023-04-22T06:12:40.249Z,5.68
2023-04-22T06:15:07.599Z,5.75
2023-04-22T06:17:34.445Z,5.50
2023-04-22T06:20:01.348Z,5.15
2023-04-22T06:22:28.192Z,5.47
2023-04-22T06:24:55.099Z,5.55
2023-04-22T06:27:21.982Z,6.10
2023-04-22T06:29:48.828Z,5.60
2023-04-22T06:32:15.729Z,5.60
2023-04-22T06:34:42.630Z,6.00
2023-04-22T06:37:09.518Z,6.10
2023-04-22T06:39:36.585Z,6.20
2023-04-22T06:42:03.637Z,6.40
2023-04-22T06:44:30.510Z,6.03
2023-04-22T06:46:58.292Z,5.60
2023-04-22T06:49:25.364Z,6.28
2023-04-22T06:51:52.352Z,5.70
2023-04-22T06:54:19.257Z,6.20
2023-04-22T06:56:46.189Z,5.97
2023-04-22T06:59:13.064Z,6.20
2023-04-22T07:01:39.948Z,6.30
2023-04-22T07:04:06.904Z,6.30
2023-04-22T07:06:33.771Z,5.90
2023-04-22T07:09:00.711Z,6.20
2023-04-22T07:11:27.600Z,6.00
2023-04-22T07:13:54.467Z,6.50
2023-04-22T07:16:21.383Z,6.43
2023-04-22T07:18:48.371Z,6.50
2023-04-22T07:21:15.370Z,5.53
2023-04-22T07:23:42.298Z,7.03
2023-04-22T07:26:09.230Z,8.18
2023-04-22T07:28:36.187Z,6.38
2023-04-22T07:31:03.282Z,6.10
2023-04-22T07:33:30.162Z,5.95
2023-04-22T07:35:57.104Z,6.20
2023-04-22T07:38:24.591Z,6.13
2023-04-22T07:40:51.474Z,6.15
2023-04-22T07:43:18.319Z,5.75
2023-04-22T07:45:45.401Z,8.33
2023-04-22T07:48:12.322Z,10.77
2023-04-22T07:50:39.761Z,6.78
2023-04-22T07:53:06.665Z,7.32
2023-04-22T07:55:33.958Z,5.88
2023-04-22T07:58:00.861Z,5.60
2023-04-22T08:00:27.835Z,6.13
2023-04-22T08:02:54.848Z,5.88
2023-04-22T08:05:21.917Z,5.80
2023-04-22T08:07:48.918Z,8.20
2023-04-22T08:10:15.768Z,7.43
2023-04-22T08:12:42.691Z,5.85
2023-04-22T08:15:09.988Z,5.93
2023-04-22T08:17:37.037Z,6.13
2023-04-22T08:20:06.593Z,6.30
2023-04-22T08:22:34.758Z,5.43
2023-04-22T08:25:01.696Z,5.25
2023-04-22T08:27:28.581Z,5.80
2023-04-22T08:29:55.434Z,5.90
2023-04-22T08:32:22.313Z,5.00
2023-04-22T08:34:51.885Z,5.40
2023-04-22T08:37:20.986Z,5.68
2023-04-22T08:39:47.869Z,5.90
2023-04-22T08:42:15.884Z,5.60
2023-04-22T08:44:43.351Z,6.03
2023-04-22T08:47:11.368Z,5.40
2023-04-22T08:49:38.886Z,5.28
2023-04-22T08:52:06.010Z,5.20
2023-04-22T08:54:32.901Z,5.00
2023-04-22T08:57:00.767Z,5.25
2023-04-22T08:59:28.022Z,5.10
2023-04-22T09:01:56.693Z,5.20
2023-04-22T09:04:24.644Z,4.65
2023-04-22T09:06:51.516Z,5.47
2023-04-22T09:09:20.165Z,4.90
2023-04-22T09:11:47.076Z,4.43
2023-04-22T09:14:13.942Z,4.60
2023-04-22T09:16:42.253Z,4.80
2023-04-22T09:19:12.600Z,4.28
2023-04-22T09:21:41.043Z,4.70
2023-04-22T09:24:09.252Z,4.40
2023-04-22T09:26:40.752Z,4.63
2023-04-22T09:29:08.120Z,4.60
2023-04-22T09:31:35.734Z,4.72
2023-04-22T09:34:02.680Z,4.72
2023-04-22T09:36:30.697Z,4.40
2023-04-22T09:39:23.611Z,4.75
2023-04-22T09:41:55.095Z,4.95
2023-04-22T09:44:22.032Z,4.75
2023-04-22T09:46:50.232Z,4.82
2023-04-22T09:49:17.566Z,4.80
2023-04-22T09:51:44.494Z,5.40
2023-04-22T09:54:11.966Z,4.80
2023-04-22T09:56:51.604Z,4.60
2023-04-22T09:59:23.251Z,4.63
2023-04-22T10:01:53.033Z,4.90
2023-04-22T10:04:20.339Z,4.50
2023-04-22T10:06:50.573Z,4.22
2023-04-22T10:09:21.995Z,4.45
2023-04-22T10:11:50.815Z,4.38
2023-04-22T10:14:17.746Z,4.80
2023-04-22T10:16:47.210Z,4.15
2023-04-22T10:19:24.141Z,4.15
2023-04-22T10:21:57.423Z,3.80
2023-04-22T10:24:27.606Z,4.60
2023-04-22T10:26:59.097Z,4.03
2023-04-22T10:29:36.115Z,4.40
2023-04-22T10:32:18.175Z,4.07
2023-04-22T10:34:47.799Z,4.00
2023-04-22T10:37:19.014Z,4.60
2023-04-22T10:40:14.396Z,7.30
2023-04-22T10:42:42.622Z,4.20
2023-04-22T10:45:13.871Z,4.15
2023-04-22T10:47:41.184Z,4.10
2023-04-22T10:50:26.972Z,3.70
2023-04-22T10:52:58.205Z,4.30
2023-04-22T10:55:26.071Z,4.43
2023-04-22T10:57:53.834Z,4.15
2023-04-22T11:00:41.773Z,4.35
2023-04-22T11:03:18.132Z,3.87
2023-04-22T11:05:45.403Z,3.90
2023-04-22T11:08:15.013Z,3.80
2023-04-22T11:10:44.873Z,4.07
2023-04-22T11:13:16.987Z,4.30
2023-04-22T11:15:51.863Z,4.00
2023-04-22T11:18:24.130Z,3.75
2023-04-22T11:20:52.137Z,4.00
2023-04-22T11:23:26.522Z,3.85
2023-04-22T11:26:01.753Z,3.70
2023-04-22T11:28:29.340Z,3.90
2023-04-22T11:31:07.464Z,3.60
2023-04-22T11:33:35.020Z,3.50
2023-04-22T11:36:02.065Z,4.78
2023-04-22T11:38:29.131Z,4.00
2023-04-22T11:40:56.840Z,3.60
2023-04-22T11:43:24.153Z,3.97
2023-04-22T11:45:51.104Z,3.60
2023-04-22T11:48:18.037Z,3.60
2023-04-22T11:50:44.926Z,3.60
2023-04-22T11:53:20.094Z,3.70
2023-04-22T11:55:49.980Z,3.90
2023-04-22T11:58:24.769Z,3.30
2023-04-22T12:00:53.130Z,3.47
2023-04-22T12:03:25.283Z,3.33
2023-04-22T12:05:58.669Z,3.40
2023-04-22T12:08:32.712Z,3.10
2023-04-22T12:11:02.191Z,3.00
2023-04-22T12:13:31.243Z,3.30
2023-04-22T12:16:00.844Z,2.95
2023-04-22T12:18:35.571Z,2.97
2023-04-22T12:21:12.122Z,2.70
2023-04-22T12:23:49.177Z,2.90
2023-04-22T12:26:17.812Z,3.45
2023-04-22T12:28:45.731Z,2.90
2023-04-22T12:31:14.323Z,3.45
2023-04-22T12:33:41.644Z,3.00
2023-04-22T12:36:08.662Z,3.20
2023-04-22T12:38:35.788Z,4.05
2023-04-22T12:41:04.134Z,3.63
2023-04-22T12:43:31.464Z,3.15
2023-04-22T12:45:59.403Z,3.00
2023-04-22T12:48:26.338Z,3.50
2023-04-22T12:50:53.210Z,4.80
2023-04-22T12:53:21.858Z,3.60
2023-04-22T12:55:48.873Z,2.90
2023-04-22T12:58:15.965Z,3.90
2023-04-22T13:00:42.805Z,3.30
2023-04-22T13:03:09.738Z,2.83
2023-04-22T13:05:37.433Z,3.30
2023-04-22T13:08:07.541Z,3.08
2023-04-22T13:10:35.549Z,3.10
2023-04-22T13:13:15.899Z,3.10
2023-04-22T13:15:45.584Z,3.33
2023-04-22T13:18:12.511Z,3.97
2023-04-22T13:20:39.436Z,2.90
2023-04-22T13:23:06.271Z,3.15
2023-04-22T13:25:33.287Z,4.20
2023-04-22T13:28:00.230Z,5.15
2023-04-22T13:30:27.183Z,3.88
2023-04-22T13:32:54.103Z,3.00
2023-04-22T13:35:21.005Z,4.90
2023-04-22T13:37:47.862Z,3.53
2023-04-22T13:40:14.810Z,3.30
2023-04-22T13:42:41.662Z,6.27
2023-04-22T13:45:12.064Z,3.60
2023-04-22T13:47:38.935Z,3.20
2023-04-22T13:50:06.474Z,4.20
2023-04-22T13:52:33.412Z,3.65
2023-04-22T13:55:00.293Z,2.75
2023-04-22T13:57:27.209Z,3.30
2023-04-22T13:59:54.147Z,6.10
2023-04-22T14:02:21.094Z,4.50
2023-04-22T14:04:48.162Z,2.70
2023-04-22T14:07:15.110Z,2.70
2023-04-22T14:09:42.291Z,5.03
2023-04-22T14:12:10.694Z,3.40
2023-04-22T14:14:37.810Z,4.00
2023-04-22T14:17:04.728Z,4.05
2023-04-22T14:19:31.662Z,3.47
2023-04-22T14:21:58.597Z,4.50
2023-04-22T14:24:25.622Z,3.60
2023-04-22T14:26:52.912Z,3.55
2023-04-22T14:29:20.128Z,2.60
2023-04-22T14:31:47.149Z,2.45
2023-04-22T14:34:14.074Z,2.60
2023-04-22T14:36:41.012Z,2.70
2023-04-22T14:39:07.873Z,3.90
2023-04-22T14:41:35.069Z,3.30
2023-04-22T14:44:02.037Z,3.20
2023-04-22T14:46:29.062Z,3.40
2023-04-22T14:48:55.975Z,3.10
2023-04-22T14:51:22.885Z,3.05
2023-04-22T14:53:49.883Z,2.63
2023-04-22T14:56:16.876Z,2.80
2023-04-22T14:58:43.752Z,2.63
2023-04-22T15:01:10.752Z,2.85
2023-04-22T15:03:37.856Z,2.60
2023-04-22T15:06:05.056Z,2.90
2023-04-22T15:08:31.960Z,2.80
2023-04-22T15:10:58.829Z,2.78
2023-04-22T15:13:25.904Z,2.70
2023-04-22T15:15:52.840Z,2.60
2023-04-22T15:18:19.864Z,3.28
2023-04-22T15:20:46.716Z,3.10
2023-04-22T15:23:13.605Z,3.08
2023-04-22T15:25:40.491Z,2.80
2023-04-22T15:28:07.529Z,2.40
2023-04-22T15:30:34.385Z,2.60
2023-04-22T15:33:01.307Z,2.80
2023-04-22T15:35:28.193Z,2.70
2023-04-22T15:37:55.032Z,2.47
2023-04-22T15:40:21.925Z,2.50
2023-04-22T15:42:48.780Z,2.60
2023-04-22T15:45:15.729Z,2.40
2023-04-22T15:47:42.755Z,2.60
2023-04-22T15:50:10.738Z,3.50
2023-04-22T15:52:38.465Z,3.05
2023-04-22T15:55:06.679Z,2.80
2023-04-22T15:57:33.591Z,3.20
2023-04-22T16:00:11.067Z,3.13
2023-04-22T16:02:40.164Z,3.30
2023-04-22T16:05:07.543Z,3.80
2023-04-22T16:07:34.633Z,3.10
2023-04-22T16:10:01.689Z,3.20
2023-04-22T16:12:28.682Z,2.85
2023-04-22T16:14:55.545Z,2.40
2023-04-22T16:17:22.525Z,2.60
2023-04-22T16:19:49.523Z,2.75
2023-04-22T16:22:16.445Z,3.40
2023-04-22T16:24:44.334Z,3.22
2023-04-22T16:27:11.463Z,2.90
2023-04-22T16:29:38.560Z,4.43
2023-04-22T16:32:05.785Z,4.00
2023-04-22T16:34:32.903Z,2.80
2023-04-22T16:36:59.806Z,3.20
2023-04-22T16:39:26.724Z,3.33
2023-04-22T16:41:54.210Z,3.10
2023-04-22T16:44:21.230Z,3.10
2023-04-22T16:46:48.143Z,3.28
2023-04-22T16:49:15.026Z,3.10
2023-04-22T16:51:41.897Z,3.33
2023-04-22T16:54:08.819Z,3.25
2023-04-22T16:56:35.734Z,3.10
2023-04-22T16:59:02.608Z,3.05
2023-04-22T17:01:29.668Z,3.20
2023-04-22T17:03:56.915Z,3.42
2023-04-22T17:06:23.961Z,4.90
2023-04-22T17:08:50.940Z,3.80
2023-04-22T17:11:17.924Z,4.40
2023-04-22T17:13:44.788Z,3.22
2023-04-22T17:16:11.668Z,3.40
2023-04-22T17:18:38.519Z,3.10
2023-04-22T17:21:05.425Z,3.85
2023-04-22T17:23:32.283Z,4.00
2023-04-22T17:25:59.168Z,3.30
2023-04-22T17:28:26.159Z,3.50
2023-04-22T17:30:53.169Z,3.30
2023-04-22T17:33:20.064Z,3.40
2023-04-22T17:35:46.971Z,3.30
2023-04-22T17:38:13.845Z,3.30
2023-04-22T17:40:40.935Z,3.30
2023-04-22T17:43:07.907Z,3.50
2023-04-22T17:45:34.865Z,3.40
2023-04-22T17:48:01.915Z,3.38
2023-04-22T17:50:28.882Z,3.50
2023-04-22T17:52:55.825Z,2.95
2023-04-22T17:55:22.724Z,3.60
2023-04-22T17:57:49.609Z,3.20
2023-04-22T18:00:16.963Z,3.10
2023-04-22T18:02:44.166Z,3.30
2023-04-22T18:05:11.181Z,3.80
2023-04-22T18:07:38.083Z,3.35
2023-04-22T18:10:05.472Z,3.20
2023-04-22T18:12:32.420Z,3.80
2023-04-22T18:14:59.350Z,3.40
2023-04-22T18:17:26.247Z,3.70
2023-04-22T18:19:55.967Z,3.20
2023-04-22T18:22:27.017Z,3.20
2023-04-22T18:24:54.290Z,3.38
2023-04-22T18:27:21.192Z,3.70
2023-04-22T18:29:48.202Z,3.50
2023-04-22T18:32:15.114Z,3.22
2023-04-22T18:34:42.574Z,5.30
2023-04-22T18:37:09.719Z,6.30
2023-04-22T18:39:38.388Z,3.80
2023-04-22T18:42:06.417Z,3.20
2023-04-22T18:44:33.275Z,3.20
2023-04-22T18:47:00.119Z,3.20
2023-04-22T18:49:26.965Z,3.40
2023-04-22T18:51:54.092Z,3.30
2023-04-22T18:54:21.017Z,4.32
2023-04-22T18:56:47.857Z,4.22
2023-04-22T18:59:14.705Z,3.17
2023-04-22T19:01:41.644Z,3.50
2023-04-22T19:04:08.748Z,3.20
2023-04-22T19:06:35.705Z,3.33
2023-04-22T19:09:02.786Z,4.00
2023-04-22T19:11:29.714Z,3.85
2023-04-22T19:13:57.044Z,3.80
2023-04-22T19:16:26.239Z,3.80
2023-04-22T19:18:53.429Z,3.70
2023-04-22T19:21:20.488Z,3.70
2023-04-22T19:23:47.308Z,3.60
2023-04-22T19:26:14.259Z,4.00
2023-04-22T19:28:41.106Z,3.90
2023-04-22T19:31:07.999Z,4.20
2023-04-22T19:33:34.998Z,4.90
2023-04-22T19:36:01.917Z,9.63
2023-04-22T19:38:28.813Z,8.88
2023-04-22T19:40:55.667Z,4.50
2023-04-22T19:43:22.607Z,4.00
2023-04-22T19:45:49.452Z,3.80
2023-04-22T19:48:16.537Z,3.63
2023-04-22T19:50:44.068Z,4.00
2023-04-22T19:53:11.192Z,3.70
2023-04-22T19:55:38.716Z,4.00
2023-04-22T19:58:06.134Z,4.20
2023-04-22T20:00:33.196Z,3.70
2023-04-22T20:03:00.476Z,4.20
2023-04-22T20:05:27.821Z,4.20
2023-04-22T20:07:57.328Z,4.32
2023-04-22T20:10:25.129Z,4.03
2023-04-22T20:12:52.335Z,4.25
2023-04-22T20:15:19.453Z,4.95
2023-04-22T20:17:46.800Z,4.60
2023-04-22T20:20:14.190Z,4.30
2023-04-22T20:22:42.481Z,4.00
2023-04-22T20:25:13.207Z,4.47
2023-04-22T20:27:40.248Z,4.10
2023-04-22T20:30:08.043Z,3.90
2023-04-22T20:32:35.008Z,4.38
2023-04-22T20:35:02.283Z,4.40
2023-04-22T20:37:29.318Z,4.10
2023-04-22T20:39:57.108Z,3.65
2023-04-22T20:42:24.319Z,3.90
2023-04-22T20:44:51.334Z,4.30
2023-04-22T20:47:18.225Z,3.78
2023-04-22T20:49:45.157Z,4.03
2023-04-22T20:52:12.526Z,4.00
2023-04-22T20:54:40.146Z,3.80
2023-04-22T20:57:07.514Z,3.92
2023-04-22T20:59:35.196Z,4.13
2023-04-22T21:02:03.562Z,3.90
2023-04-22T21:04:32.187Z,4.03
2023-04-22T21:07:01.524Z,3.78
2023-04-22T21:09:28.926Z,4.00
2023-04-22T21:11:56.388Z,3.83
2023-04-22T21:14:23.896Z,3.50
2023-04-22T21:17:09.926Z,3.60
2023-04-22T21:19:38.672Z,4.07
2023-04-22T21:22:06.499Z,4.00
2023-04-22T21:24:34.212Z,4.30
2023-04-22T21:27:01.355Z,4.20
2023-04-22T21:29:28.980Z,4.60
2023-04-22T21:32:07.966Z,4.63
2023-04-22T21:34:35.911Z,4.30
2023-04-22T21:37:02.963Z,5.80
2023-04-22T21:39:30.018Z,4.60
2023-04-22T21:41:56.984Z,4.00
2023-04-22T21:44:24.040Z,4.70
2023-04-22T21:46:50.905Z,4.03
2023-04-22T21:49:17.794Z,4.20
2023-04-22T21:51:44.732Z,4.10
2023-04-22T21:54:11.655Z,3.83
2023-04-22T21:56:38.567Z,3.90
2023-04-22T21:59:05.485Z,4.50
2023-04-22T22:01:32.394Z,4.88
2023-04-22T22:03:59.353Z,4.75
2023-04-22T22:06:26.376Z,4.43
2023-04-22T22:08:53.500Z,5.10
2023-04-22T22:11:30.439Z,6.25
2023-04-22T22:13:58.623Z,5.18
2023-04-22T22:16:25.984Z,4.28
2023-04-22T22:18:53.058Z,4.10
2023-04-22T22:21:19.920Z,3.95
2023-04-22T22:23:46.872Z,3.85
2023-04-22T22:26:14.110Z,4.00
2023-04-22T22:28:40.987Z,3.90
2023-04-22T22:31:07.895Z,4.07
2023-04-22T22:33:34.809Z,4.00
2023-04-22T22:36:01.729Z,4.18
2023-04-22T22:38:28.609Z,4.10
2023-04-22T22:40:55.704Z,3.90
2023-04-22T22:43:22.532Z,4.15
2023-04-22T22:45:49.509Z,4.78
2023-04-22T22:48:16.467Z,5.55
2023-04-22T22:50:43.906Z,4.57
2023-04-22T22:53:10.786Z,4.30
2023-04-22T22:55:37.704Z,4.30
2023-04-22T22:58:04.597Z,4.30
2023-04-22T23:00:31.467Z,3.60
2023-04-22T23:02:58.565Z,4.40
2023-04-22T23:05:25.576Z,3.90
2023-04-22T23:07:52.480Z,4.10
2023-04-22T23:10:19.400Z,4.03
2023-04-22T23:12:46.256Z,4.28
2023-04-22T23:15:13.146Z,4.28
2023-04-22T23:17:40.136Z,5.60
2023-04-22T23:20:08.088Z,4.70
2023-04-22T23:22:37.829Z,6.07
2023-04-22T23:25:05.665Z,9.43
2023-04-22T23:27:32.846Z,5.10
2023-04-22T23:30:00.056Z,4.10
2023-04-22T23:32:27.974Z,4.03
2023-04-22T23:34:56.893Z,4.10
2023-04-22T23:37:28.052Z,4.20
2023-04-22T23:39:55.202Z,4.10
2023-04-22T23:42:22.055Z,4.40
2023-04-22T23:44:48.900Z,4.47
2023-04-22T23:47:15.825Z,6.10
2023-04-22T23:49:43.537Z,4.60
2023-04-22T23:52:10.617Z,4.00
2023-04-22T23:54:37.757Z,4.70
2023-04-22T23:57:04.953Z,4.25
2023-04-22T23:59:32.129Z,3.93
